createdAt,value
2023-12-09T00:00:15.219Z,0.00
2023-12-09T00:00:38.121Z,0.00
2023-12-09T00:01:01.518Z,0.00
2023-12-09T00:01:23.863Z,-0.00
2023-12-09T00:01:46.210Z,0.00
2023-12-09T00:02:08.949Z,0.00
2023-12-09T00:02:31.444Z,0.01
2023-12-09T00:02:53.859Z,0.02
2023-12-09T00:03:16.466Z,0.03
2023-12-09T00:03:39.518Z,0.05
2023-12-09T00:04:02.030Z,0.06
2023-12-09T00:04:24.580Z,0.06
2023-12-09T00:04:47.181Z,0.08
2023-12-09T00:05:09.914Z,0.09
2023-12-09T00:05:32.331Z,0.10
2023-12-09T00:05:54.996Z,0.10
2023-12-09T00:06:17.789Z,0.10
2023-12-09T00:06:47.014Z,0.10
2023-12-09T00:07:09.517Z,0.10
2023-12-09T00:07:32.132Z,0.10
2023-12-09T00:07:54.553Z,0.09
2023-12-09T00:08:16.843Z,0.09
2023-12-09T00:08:39.125Z,0.08
2023-12-09T00:09:01.513Z,0.07
2023-12-09T00:09:24.278Z,0.06
2023-12-09T00:09:46.745Z,0.06
2023-12-09T00:10:10.167Z,0.04
2023-12-09T00:10:32.655Z,0.04
2023-12-09T00:10:55.043Z,0.03
2023-12-09T00:11:17.744Z,0.02
2023-12-09T00:11:40.364Z,0.01
2023-12-09T00:12:02.973Z,-0.00
2023-12-09T00:12:25.590Z,-0.01
2023-12-09T00:12:49.592Z,-0.02
2023-12-09T00:13:12.110Z,-0.03
2023-12-09T00:13:34.512Z,-0.04
2023-12-09T00:13:57.546Z,-0.04
2023-12-09T00:14:20.072Z,-0.04
2023-12-09T00:14:42.436Z,-0.04
2023-12-09T00:15:06.063Z,-0.03
2023-12-09T00:15:28.591Z,-0.02
2023-12-09T00:15:50.951Z,-0.01
2023-12-09T00:16:13.253Z,0.01
2023-12-09T00:16:36.446Z,0.02
2023-12-09T00:16:58.829Z,0.04
2023-12-09T00:17:21.133Z,0.05
2023-12-09T00:17:43.860Z,0.06
2023-12-09T00:18:06.450Z,0.06
2023-12-09T00:18:28.963Z,0.07
2023-12-09T00:18:51.534Z,0.07
2023-12-09T00:19:14.597Z,0.07
2023-12-09T00:19:37.824Z,0.07
2023-12-09T00:20:00.546Z,0.06
2023-12-09T00:20:23.103Z,0.06
2023-12-09T00:20:46.037Z,0.05
2023-12-09T00:21:08.740Z,0.05
2023-12-09T00:21:31.284Z,0.04
2023-12-09T00:21:53.745Z,0.03
2023-12-09T00:22:16.290Z,0.02
2023-12-09T00:22:39.816Z,0.01
2023-12-09T00:23:02.426Z,-0.00
2023-12-09T00:23:24.821Z,-0.02
2023-12-09T00:23:48.381Z,-0.03
2023-12-09T00:24:11.184Z,-0.03
2023-12-09T00:24:33.785Z,-0.04
2023-12-09T00:24:56.249Z,-0.05
2023-12-09T00:25:18.857Z,-0.06
2023-12-09T00:25:41.215Z,-0.06
2023-12-09T00:26:04.189Z,-0.06
2023-12-09T00:26:26.760Z,-0.06
2023-12-09T00:26:49.222Z,-0.05
2023-12-09T00:27:11.753Z,-0.04
2023-12-09T00:27:35.239Z,-0.03
2023-12-09T00:27:57.916Z,-0.03
2023-12-09T00:28:20.725Z,-0.02
2023-12-09T00:28:43.417Z,0.00
2023-12-09T00:29:06.007Z,0.01
2023-12-09T00:29:28.357Z,0.02
2023-12-09T00:29:50.677Z,0.04
2023-12-09T00:30:13.551Z,0.04
2023-12-09T00:30:36.205Z,0.04
2023-12-09T00:30:58.734Z,0.05
2023-12-09T00:31:21.126Z,0.04
2023-12-09T00:31:43.616Z,0.04
2023-12-09T00:32:06.248Z,0.04
2023-12-09T00:32:28.959Z,0.03
2023-12-09T00:32:51.780Z,0.02
2023-12-09T00:33:14.496Z,0.02
2023-12-09T00:33:37.325Z,0.00
2023-12-09T00:33:59.892Z,-0.00
2023-12-09T00:34:22.511Z,-0.01
2023-12-09T00:34:45.039Z,-0.02
2023-12-09T00:35:07.671Z,-0.02
2023-12-09T00:35:30.061Z,-0.03
2023-12-09T00:35:52.408Z,-0.03
2023-12-09T00:36:14.922Z,-0.03
2023-12-09T00:36:37.479Z,-0.03
2023-12-09T00:36:59.941Z,-0.04
2023-12-09T00:37:22.339Z,-0.04
2023-12-09T00:37:44.706Z,-0.04
2023-12-09T00:38:07.135Z,-0.04
2023-12-09T00:38:29.636Z,-0.03
2023-12-09T00:38:52.080Z,-0.03
2023-12-09T00:39:14.621Z,-0.02
2023-12-09T00:39:37.178Z,-0.01
2023-12-09T00:39:59.534Z,0.01
2023-12-09T00:40:22.982Z,0.03
2023-12-09T00:40:45.300Z,0.04
2023-12-09T00:41:07.622Z,0.05
2023-12-09T00:41:30.061Z,0.07
2023-12-09T00:41:52.480Z,0.08
2023-12-09T00:42:14.864Z,0.09
2023-12-09T00:42:37.793Z,0.09
2023-12-09T00:43:00.289Z,0.09
2023-12-09T00:43:22.753Z,0.09
2023-12-09T00:43:45.092Z,0.08
2023-12-09T00:44:07.448Z,0.08
2023-12-09T00:44:29.768Z,0.07
2023-12-09T00:44:52.114Z,0.07
2023-12-09T00:45:14.812Z,0.06
2023-12-09T00:45:37.205Z,0.05
2023-12-09T00:45:59.649Z,0.04
2023-12-09T00:46:22.501Z,0.03
2023-12-09T00:46:44.887Z,0.03
2023-12-09T00:47:07.260Z,0.02
2023-12-09T00:47:29.673Z,0.01
2023-12-09T00:47:52.514Z,-0.00
2023-12-09T00:48:15.088Z,-0.01
2023-12-09T00:48:37.808Z,-0.02
2023-12-09T00:49:00.412Z,-0.03
2023-12-09T00:49:23.296Z,-0.04
2023-12-09T00:49:45.938Z,-0.05
2023-12-09T00:50:08.731Z,-0.06
2023-12-09T00:50:31.041Z,-0.06
2023-12-09T00:50:53.515Z,-0.06
2023-12-09T00:51:15.860Z,-0.06
2023-12-09T00:51:38.197Z,-0.05
2023-12-09T00:52:00.883Z,-0.05
2023-12-09T00:52:23.286Z,-0.03
2023-12-09T00:52:46.003Z,-0.02
2023-12-09T00:53:08.401Z,-0.02
2023-12-09T00:53:30.725Z,0.00
2023-12-09T00:53:53.192Z,0.01
2023-12-09T00:54:15.633Z,0.02
2023-12-09T00:54:38.021Z,0.03
2023-12-09T00:55:03.475Z,0.03
2023-12-09T00:55:25.797Z,0.03
2023-12-09T00:55:48.082Z,0.03
2023-12-09T00:56:10.398Z,0.03
2023-12-09T00:56:35.222Z,0.02
2023-12-09T00:56:58.242Z,0.02
2023-12-09T00:57:22.427Z,0.02
2023-12-09T00:57:44.881Z,0.00
2023-12-09T00:58:07.203Z,0.00
2023-12-09T00:58:29.633Z,-0.01
2023-12-09T00:58:51.988Z,-0.01
2023-12-09T00:59:14.417Z,-0.03
2023-12-09T00:59:36.770Z,-0.03
2023-12-09T00:59:59.218Z,-0.03
2023-12-09T01:00:21.562Z,-0.04
2023-12-09T01:00:44.039Z,-0.05
2023-12-09T01:01:06.663Z,-0.06
2023-12-09T01:01:29.112Z,-0.06
2023-12-09T01:01:51.819Z,-0.07
2023-12-09T01:02:14.141Z,-0.07
2023-12-09T01:02:36.621Z,-0.07
2023-12-09T01:02:59.223Z,-0.06
2023-12-09T01:03:21.834Z,-0.05
2023-12-09T01:03:44.580Z,-0.04
2023-12-09T01:04:07.160Z,-0.03
2023-12-09T01:04:29.768Z,-0.02
2023-12-09T01:04:52.261Z,0.00
2023-12-09T01:05:14.675Z,0.02
2023-12-09T01:05:37.029Z,0.03
2023-12-09T01:05:59.410Z,0.03
2023-12-09T01:06:21.898Z,0.04
2023-12-09T01:06:44.425Z,0.04
2023-12-09T01:07:06.818Z,0.04
2023-12-09T01:07:29.363Z,0.05
2023-12-09T01:07:51.666Z,0.04
2023-12-09T01:08:14.023Z,0.04
2023-12-09T01:08:36.519Z,0.04
2023-12-09T01:08:58.830Z,0.03
2023-12-09T01:09:21.233Z,0.02
2023-12-09T01:09:43.649Z,0.02
2023-12-09T01:10:07.107Z,0.01
2023-12-09T01:10:29.449Z,0.00
2023-12-09T01:10:51.759Z,-0.01
2023-12-09T01:11:14.053Z,-0.01
2023-12-09T01:11:36.532Z,-0.02
2023-12-09T01:11:58.906Z,-0.03
2023-12-09T01:12:21.371Z,-0.04
2023-12-09T01:12:43.921Z,-0.05
2023-12-09T01:13:07.052Z,-0.05
2023-12-09T01:13:31.475Z,-0.06
2023-12-09T01:13:54.434Z,-0.06
2023-12-09T01:14:17.201Z,-0.05
2023-12-09T01:14:39.692Z,-0.05
2023-12-09T01:15:02.065Z,-0.04
2023-12-09T01:15:24.552Z,-0.04
2023-12-09T01:15:46.998Z,-0.02
2023-12-09T01:16:10.464Z,-0.01
2023-12-09T01:16:33.128Z,0.00
2023-12-09T01:16:55.717Z,0.02
2023-12-09T01:17:18.283Z,0.03
2023-12-09T01:17:40.867Z,0.04
2023-12-09T01:18:03.529Z,0.04
2023-12-09T01:18:26.020Z,0.03
2023-12-09T01:18:48.480Z,0.03
2023-12-09T01:19:10.954Z,0.03
2023-12-09T01:19:33.716Z,0.02
2023-12-09T01:19:56.204Z,0.02
2023-12-09T01:20:19.978Z,0.01
2023-12-09T01:20:42.363Z,0.01
2023-12-09T01:21:05.110Z,-0.00
2023-12-09T01:21:27.892Z,-0.01
2023-12-09T01:21:50.387Z,-0.02
2023-12-09T01:22:12.778Z,-0.03
2023-12-09T01:22:35.103Z,-0.03
2023-12-09T01:22:57.397Z,-0.04
2023-12-09T01:23:19.865Z,-0.05
2023-12-09T01:23:42.367Z,-0.06
2023-12-09T01:24:05.965Z,-0.06
2023-12-09T01:24:28.477Z,-0.07
2023-12-09T01:24:50.845Z,-0.07
2023-12-09T01:25:13.152Z,-0.08
2023-12-09T01:25:35.580Z,-0.07
2023-12-09T01:25:57.982Z,-0.07
2023-12-09T01:26:20.385Z,-0.06
2023-12-09T01:26:42.789Z,-0.05
2023-12-09T01:27:05.462Z,-0.04
2023-12-09T01:27:28.039Z,-0.02
2023-12-09T01:27:50.613Z,-0.00
2023-12-09T01:28:13.008Z,0.01
2023-12-09T01:28:35.291Z,0.02
2023-12-09T01:28:58.529Z,0.03
2023-12-09T01:29:20.916Z,0.04
2023-12-09T01:29:43.323Z,0.05
2023-12-09T01:30:07.062Z,0.05
2023-12-09T01:30:29.667Z,0.06
2023-12-09T01:30:52.134Z,0.05
2023-12-09T01:31:14.525Z,0.05
2023-12-09T01:31:36.898Z,0.05
2023-12-09T01:31:59.277Z,0.04
2023-12-09T01:32:21.637Z,0.04
2023-12-09T01:32:44.083Z,0.04
2023-12-09T01:33:06.654Z,0.03
2023-12-09T01:33:29.315Z,0.03
2023-12-09T01:33:51.938Z,0.02
2023-12-09T01:34:14.626Z,0.01
2023-12-09T01:34:41.420Z,0.01
2023-12-09T01:35:05.225Z,0.00
2023-12-09T01:35:27.752Z,0.00
2023-12-09T01:35:50.312Z,-0.00
2023-12-09T01:36:12.845Z,-0.01
2023-12-09T01:36:35.276Z,-0.02
2023-12-09T01:36:57.752Z,-0.02
2023-12-09T01:37:20.168Z,-0.02
2023-12-09T01:37:42.879Z,-0.02
2023-12-09T01:38:05.282Z,-0.01
2023-12-09T01:38:27.648Z,-0.01
2023-12-09T01:38:50.066Z,0.01
2023-12-09T01:39:13.084Z,0.02
2023-12-09T01:39:38.083Z,0.03
2023-12-09T01:40:00.452Z,0.04
2023-12-09T01:40:23.121Z,0.05
2023-12-09T01:40:45.547Z,0.06
2023-12-09T01:41:07.920Z,0.06
2023-12-09T01:41:30.225Z,0.08
2023-12-09T01:41:53.212Z,0.08
2023-12-09T01:42:15.656Z,0.09
2023-12-09T01:42:38.078Z,0.10
2023-12-09T01:43:00.657Z,0.09
2023-12-09T01:43:24.832Z,0.09
2023-12-09T01:43:48.521Z,0.09
2023-12-09T01:44:10.883Z,0.08
2023-12-09T01:44:33.165Z,0.07
2023-12-09T01:44:55.489Z,0.06
2023-12-09T01:45:17.809Z,0.05
2023-12-09T01:45:40.375Z,0.05
2023-12-09T01:46:06.256Z,0.04
2023-12-09T01:46:29.525Z,0.03
2023-12-09T01:46:52.075Z,0.03
2023-12-09T01:47:14.592Z,0.02
2023-12-09T01:47:37.586Z,0.01
2023-12-09T01:48:01.947Z,0.01
2023-12-09T01:48:24.595Z,-0.00
2023-12-09T01:48:47.782Z,-0.00
2023-12-09T01:49:11.743Z,-0.02
2023-12-09T01:49:34.929Z,-0.02
2023-12-09T01:49:57.544Z,-0.02
2023-12-09T01:50:20.272Z,-0.03
2023-12-09T01:50:42.806Z,-0.02
2023-12-09T01:51:05.635Z,-0.02
2023-12-09T01:51:28.716Z,-0.01
2023-12-09T01:51:51.323Z,0.01
2023-12-09T01:52:13.942Z,0.03
2023-12-09T01:52:36.352Z,0.03
2023-12-09T01:52:59.099Z,0.04
2023-12-09T01:53:21.459Z,0.05
2023-12-09T01:53:43.760Z,0.06
2023-12-09T01:54:06.233Z,0.07
2023-12-09T01:54:28.679Z,0.08
2023-12-09T01:54:51.128Z,0.07
2023-12-09T01:55:13.657Z,0.08
2023-12-09T01:55:36.535Z,0.07
2023-12-09T01:55:59.198Z,0.07
2023-12-09T01:56:21.639Z,0.06
2023-12-09T01:56:44.483Z,0.05
2023-12-09T01:57:07.700Z,0.05
2023-12-09T01:57:30.275Z,0.04
2023-12-09T01:57:53.303Z,0.03
2023-12-09T01:58:16.534Z,0.02
2023-12-09T01:58:39.099Z,0.02
2023-12-09T01:59:01.426Z,0.00
2023-12-09T01:59:23.724Z,0.00
2023-12-09T01:59:46.188Z,-0.01
2023-12-09T02:00:08.965Z,-0.03
2023-12-09T02:00:32.181Z,-0.03
2023-12-09T02:00:54.735Z,-0.04
2023-12-09T02:01:17.219Z,-0.05
2023-12-09T02:01:39.889Z,-0.05
2023-12-09T02:02:02.370Z,-0.06
2023-12-09T02:02:25.219Z,-0.05
2023-12-09T02:02:48.095Z,-0.05
2023-12-09T02:03:10.624Z,-0.04
2023-12-09T02:03:33.414Z,-0.04
2023-12-09T02:03:56.788Z,-0.02
2023-12-09T02:04:19.924Z,-0.01
2023-12-09T02:04:42.493Z,0.01
2023-12-09T02:05:05.278Z,0.02
2023-12-09T02:05:28.027Z,0.03
2023-12-09T02:05:51.192Z,0.05
2023-12-09T02:06:13.729Z,0.05
2023-12-09T02:06:36.311Z,0.06
2023-12-09T02:06:58.814Z,0.07
2023-12-09T02:07:21.310Z,0.07
2023-12-09T02:07:43.634Z,0.06
2023-12-09T02:08:06.117Z,0.07
2023-12-09T02:08:28.512Z,0.06
2023-12-09T02:08:51.031Z,0.06
2023-12-09T02:09:13.466Z,0.05
2023-12-09T02:09:37.054Z,0.04
2023-12-09T02:09:59.453Z,0.04
2023-12-09T02:10:21.771Z,0.04
2023-12-09T02:10:44.224Z,0.03
2023-12-09T02:11:25.651Z,0.03
2023-12-09T02:11:49.220Z,0.02
2023-12-09T02:12:25.627Z,0.01
2023-12-09T02:12:49.638Z,0.01
2023-12-09T02:13:25.203Z,-0.00
2023-12-09T02:13:50.710Z,-0.01
2023-12-09T02:14:15.983Z,-0.02
2023-12-09T02:14:46.405Z,-0.03
2023-12-09T02:15:12.931Z,-0.03
2023-12-09T02:15:38.317Z,-0.03
2023-12-09T02:16:20.846Z,-0.02
2023-12-09T02:16:58.035Z,0.00
2023-12-09T02:17:21.666Z,0.03
2023-12-09T02:18:07.261Z,0.04
2023-12-09T02:18:29.941Z,0.07
2023-12-09T02:18:52.461Z,0.08
2023-12-09T02:19:15.310Z,0.09
2023-12-09T02:19:38.015Z,0.09
2023-12-09T02:20:01.868Z,0.09
2023-12-09T02:20:24.230Z,0.09
2023-12-09T02:20:46.754Z,0.09
2023-12-09T02:21:09.145Z,0.09
2023-12-09T02:21:31.505Z,0.08
2023-12-09T02:21:58.036Z,0.07
2023-12-09T02:22:20.334Z,0.05
2023-12-09T02:22:43.220Z,0.05
2023-12-09T02:23:12.373Z,0.04
2023-12-09T02:23:34.685Z,0.03
2023-12-09T02:23:57.315Z,0.03
2023-12-09T02:24:19.734Z,-0.03
2023-12-09T02:24:42.496Z,0.01
2023-12-09T02:25:05.199Z,0.00
2023-12-09T02:25:27.577Z,-0.01
2023-12-09T02:25:50.477Z,-0.02
2023-12-09T02:26:15.532Z,-0.03
2023-12-09T02:26:37.829Z,-0.03
2023-12-09T02:27:26.818Z,-0.04
2023-12-09T02:27:50.447Z,-0.05
2023-12-09T02:28:17.242Z,-0.05
2023-12-09T02:28:40.655Z,-0.05
2023-12-09T02:29:04.077Z,-0.04
2023-12-09T02:29:26.376Z,-0.03
2023-12-09T02:29:54.458Z,-0.02
2023-12-09T02:30:20.938Z,-0.00
2023-12-09T02:30:46.363Z,0.01
2023-12-09T02:31:08.856Z,0.02
2023-12-09T02:31:32.477Z,0.03
2023-12-09T02:31:56.648Z,0.04
2023-12-09T02:32:20.910Z,0.04
2023-12-09T02:32:43.357Z,0.04
2023-12-09T02:33:06.329Z,0.04
2023-12-09T02:33:29.020Z,0.04
2023-12-09T02:33:51.688Z,0.04
2023-12-09T02:34:14.186Z,0.04
2023-12-09T02:34:38.029Z,0.03
2023-12-09T02:35:01.350Z,0.02
2023-12-09T02:35:24.231Z,0.01
2023-12-09T02:35:46.679Z,0.01
2023-12-09T02:36:09.243Z,-0.00
2023-12-09T02:36:31.717Z,-0.00
2023-12-09T02:36:54.256Z,-0.02
2023-12-09T02:37:16.631Z,-0.02
2023-12-09T02:37:39.181Z,-0.03
2023-12-09T02:38:01.643Z,-0.04
2023-12-09T02:38:24.148Z,-0.04
2023-12-09T02:38:46.636Z,-0.05
2023-12-09T02:39:09.833Z,-0.05
2023-12-09T02:39:32.462Z,-0.06
2023-12-09T02:39:54.783Z,-0.07
2023-12-09T02:40:18.611Z,-0.07
2023-12-09T02:40:41.498Z,-0.07
2023-12-09T02:41:04.118Z,-0.07
2023-12-09T02:41:26.601Z,-0.06
2023-12-09T02:41:49.504Z,-0.05
2023-12-09T02:42:11.947Z,-0.05
2023-12-09T02:42:34.378Z,-0.03
2023-12-09T02:42:56.770Z,-0.02
2023-12-09T02:43:19.297Z,-0.02
2023-12-09T02:43:43.043Z,-0.01
2023-12-09T02:44:05.369Z,-0.01
2023-12-09T02:44:27.824Z,0.01
2023-12-09T02:44:50.270Z,-0.00
2023-12-09T02:45:12.766Z,-0.01
2023-12-09T02:45:35.223Z,-0.01
2023-12-09T02:45:58.030Z,-0.02
2023-12-09T02:46:20.432Z,-0.02
2023-12-09T02:46:42.929Z,-0.03
2023-12-09T02:47:05.298Z,-0.04
2023-12-09T02:47:27.859Z,-0.04
2023-12-09T02:47:50.380Z,-0.04
2023-12-09T02:48:12.986Z,-0.05
2023-12-09T02:48:35.470Z,-0.05
2023-12-09T02:49:00.094Z,-0.06
2023-12-09T02:49:23.146Z,-0.07
2023-12-09T02:49:46.111Z,-0.07
2023-12-09T02:50:09.010Z,-0.08
2023-12-09T02:50:31.623Z,-0.08
2023-12-09T02:50:53.975Z,-0.09
2023-12-09T02:51:16.447Z,-0.09
2023-12-09T02:51:39.118Z,-0.09
2023-12-09T02:52:01.406Z,-0.09
2023-12-09T02:52:23.951Z,-0.09
2023-12-09T02:52:46.446Z,-0.09
2023-12-09T02:53:08.813Z,-0.08
2023-12-09T02:53:31.210Z,-0.07
2023-12-09T02:53:55.728Z,-0.06
2023-12-09T02:54:18.197Z,-0.05
2023-12-09T02:54:40.728Z,-0.04
2023-12-09T02:55:03.202Z,-0.03
2023-12-09T02:55:25.681Z,-0.02
2023-12-09T02:55:48.054Z,0.00
2023-12-09T02:56:10.371Z,0.02
2023-12-09T02:56:32.744Z,0.02
2023-12-09T02:56:55.282Z,0.03
2023-12-09T02:57:17.642Z,0.02
2023-12-09T02:57:40.119Z,0.02
2023-12-09T02:58:02.666Z,0.02
2023-12-09T02:58:24.974Z,0.02
2023-12-09T02:58:47.652Z,0.01
2023-12-09T02:59:10.145Z,0.00
2023-12-09T02:59:32.568Z,-0.01
2023-12-09T02:59:55.005Z,-0.02
2023-12-09T03:00:18.322Z,-0.02
2023-12-09T03:00:41.060Z,-0.03
2023-12-09T03:01:03.835Z,-0.03
2023-12-09T03:01:26.301Z,-0.04
2023-12-09T03:01:48.882Z,-0.04
2023-12-09T03:02:11.179Z,-0.05
2023-12-09T03:02:33.672Z,-0.06
2023-12-09T03:02:56.151Z,-0.07
2023-12-09T03:03:18.691Z,-0.07
2023-12-09T03:03:41.189Z,-0.08
2023-12-09T03:04:03.814Z,-0.09
2023-12-09T03:04:26.556Z,-0.09
2023-12-09T03:04:49.011Z,-0.09
2023-12-09T03:05:11.473Z,-0.09
2023-12-09T03:05:34.009Z,-0.08
2023-12-09T03:05:56.533Z,-0.07
2023-12-09T03:06:18.937Z,-0.07
2023-12-09T03:06:41.487Z,-0.05
2023-12-09T03:07:04.020Z,-0.05
2023-12-09T03:07:26.486Z,-0.04
2023-12-09T03:07:48.995Z,-0.02
2023-12-09T03:08:11.397Z,-0.02
2023-12-09T03:08:33.783Z,-0.00
2023-12-09T03:08:56.230Z,0.00
2023-12-09T03:09:18.703Z,0.01
2023-12-09T03:09:41.133Z,0.01
2023-12-09T03:10:03.939Z,0.00
2023-12-09T03:10:26.388Z,-0.01
2023-12-09T03:10:48.884Z,-0.02
2023-12-09T03:11:11.282Z,-0.01
2023-12-09T03:11:33.694Z,-0.03
2023-12-09T03:11:56.214Z,-0.03
2023-12-09T03:12:19.095Z,-0.04
2023-12-09T03:12:41.642Z,-0.06
2023-12-09T03:13:04.023Z,-0.05
2023-12-09T03:13:27.885Z,-0.07
2023-12-09T03:13:50.192Z,-0.07
2023-12-09T03:14:12.716Z,-0.08
2023-12-09T03:14:35.133Z,-0.09
2023-12-09T03:14:57.674Z,-0.10
2023-12-09T03:15:20.145Z,-0.10
2023-12-09T03:15:42.556Z,-0.11
2023-12-09T03:16:05.282Z,-0.12
2023-12-09T03:16:27.616Z,-0.13
2023-12-09T03:16:49.925Z,-0.13
2023-12-09T03:17:12.281Z,-0.14
2023-12-09T03:17:36.467Z,-0.13
2023-12-09T03:17:59.032Z,-0.13
2023-12-09T03:18:21.678Z,-0.12
2023-12-09T03:18:44.339Z,-0.11
2023-12-09T03:19:06.945Z,-0.10
2023-12-09T03:19:29.573Z,-0.09
2023-12-09T03:19:52.252Z,-0.07
2023-12-09T03:20:14.696Z,-0.05
2023-12-09T03:20:37.066Z,-0.03
2023-12-09T03:20:59.527Z,-0.02
2023-12-09T03:21:21.948Z,-0.02
2023-12-09T03:21:44.982Z,-0.01
2023-12-09T03:22:08.056Z,-0.01
2023-12-09T03:22:31.002Z,-0.01
2023-12-09T03:22:53.588Z,-0.01
2023-12-09T03:23:16.003Z,-0.01
2023-12-09T03:23:38.334Z,-0.02
2023-12-09T03:24:00.806Z,-0.02
2023-12-09T03:24:23.222Z,-0.02
2023-12-09T03:24:45.696Z,-0.02
2023-12-09T03:25:08.397Z,-0.03
2023-12-09T03:25:30.914Z,-0.04
2023-12-09T03:25:53.518Z,-0.04
2023-12-09T03:26:19.055Z,-0.05
2023-12-09T03:26:41.500Z,-0.05
2023-12-09T03:27:03.932Z,-0.06
2023-12-09T03:27:26.427Z,-0.07
2023-12-09T03:27:48.897Z,-0.07
2023-12-09T03:28:11.371Z,-0.08
2023-12-09T03:28:33.872Z,-0.08
2023-12-09T03:28:56.205Z,-0.08
2023-12-09T03:29:18.896Z,-0.09
2023-12-09T03:29:42.086Z,-0.09
2023-12-09T03:30:04.853Z,-0.08
2023-12-09T03:30:27.364Z,-0.08
2023-12-09T03:30:49.902Z,-0.07
2023-12-09T03:31:12.855Z,-0.06
2023-12-09T03:31:35.207Z,-0.05
2023-12-09T03:31:57.629Z,-0.04
2023-12-09T03:32:20.126Z,-0.03
2023-12-09T03:32:42.548Z,-0.02
2023-12-09T03:33:05.227Z,-0.01
2023-12-09T03:33:27.848Z,0.01
2023-12-09T03:33:50.521Z,0.01
2023-12-09T03:34:13.349Z,0.02
2023-12-09T03:34:35.969Z,0.02
2023-12-09T03:34:58.452Z,0.02
2023-12-09T03:35:20.930Z,0.01
2023-12-09T03:35:43.242Z,0.01
2023-12-09T03:36:06.537Z,-0.00
2023-12-09T03:36:28.994Z,-0.01
2023-12-09T03:36:51.354Z,-0.02
2023-12-09T03:37:13.718Z,-0.03
2023-12-09T03:37:36.153Z,-0.05
2023-12-09T03:37:58.456Z,-0.06
2023-12-09T03:38:20.858Z,-0.07
2023-12-09T03:38:43.525Z,-0.08
2023-12-09T03:39:07.439Z,-0.08
2023-12-09T03:39:29.771Z,-0.09
2023-12-09T03:39:52.195Z,-0.09
2023-12-09T03:40:14.582Z,-0.10
2023-12-09T03:40:36.949Z,-0.11
2023-12-09T03:40:59.372Z,-0.12
2023-12-09T03:41:24.598Z,-0.13
2023-12-09T03:41:48.334Z,-0.13
2023-12-09T03:42:10.801Z,-0.14
2023-12-09T03:42:33.134Z,-0.14
2023-12-09T03:42:55.632Z,-0.14
2023-12-09T03:43:17.966Z,-0.13
2023-12-09T03:43:40.500Z,-0.13
2023-12-09T03:44:03.178Z,-0.12
2023-12-09T03:44:25.498Z,-0.11
2023-12-09T03:44:47.957Z,-0.10
2023-12-09T03:45:10.583Z,-0.08
2023-12-09T03:45:32.982Z,-0.07
2023-12-09T03:45:55.431Z,-0.07
2023-12-09T03:46:17.773Z,-0.07
2023-12-09T03:46:40.072Z,-0.06
2023-12-09T03:47:06.857Z,-0.06
2023-12-09T03:47:35.994Z,-0.07
2023-12-09T03:47:58.418Z,-0.08
2023-12-09T03:48:20.958Z,-0.09
2023-12-09T03:48:43.503Z,-0.10
2023-12-09T03:49:06.319Z,-0.10
2023-12-09T03:49:28.871Z,-0.11
2023-12-09T03:49:51.524Z,-0.12
2023-12-09T03:50:14.103Z,-0.12
2023-12-09T03:50:36.593Z,-0.13
2023-12-09T03:50:59.101Z,-0.14
2023-12-09T03:51:21.568Z,-0.15
2023-12-09T03:51:44.188Z,-0.16
2023-12-09T03:52:06.739Z,-0.17
2023-12-09T03:52:29.521Z,-0.17
2023-12-09T03:52:52.025Z,-0.17
2023-12-09T03:53:14.744Z,-0.19
2023-12-09T03:53:37.199Z,-0.18
2023-12-09T03:53:59.500Z,-0.19
2023-12-09T03:54:22.080Z,-0.18
2023-12-09T03:54:44.597Z,-0.17
2023-12-09T03:55:07.922Z,-0.16
2023-12-09T03:55:30.357Z,-0.15
2023-12-09T03:55:52.817Z,-0.13
2023-12-09T03:56:17.281Z,-0.12
2023-12-09T03:56:39.687Z,-0.10
2023-12-09T03:57:02.444Z,-0.10
2023-12-09T03:57:25.021Z,-0.08
2023-12-09T03:57:47.507Z,-0.08
2023-12-09T03:58:10.000Z,-0.07
2023-12-09T03:58:32.286Z,-0.07
2023-12-09T03:58:54.599Z,-0.07
2023-12-09T03:59:17.058Z,-0.08
2023-12-09T03:59:42.377Z,-0.08
2023-12-09T04:00:06.045Z,-0.09
2023-12-09T04:00:28.600Z,-0.09
2023-12-09T04:00:51.579Z,-0.11
2023-12-09T04:01:14.262Z,-0.12
2023-12-09T04:01:36.841Z,-0.13
2023-12-09T04:02:00.924Z,-0.14
2023-12-09T04:02:23.642Z,-0.15
2023-12-09T04:02:45.946Z,-0.15
2023-12-09T04:03:08.407Z,-0.16
2023-12-09T04:03:30.897Z,-0.17
2023-12-09T04:03:53.437Z,-0.18
2023-12-09T04:04:16.447Z,-0.19
2023-12-09T04:04:39.863Z,-0.20
2023-12-09T04:05:02.345Z,-0.21
2023-12-09T04:05:24.859Z,-0.23
2023-12-09T04:05:47.352Z,-0.23
2023-12-09T04:06:10.016Z,-0.22
2023-12-09T04:06:33.573Z,-0.21
2023-12-09T04:06:56.377Z,-0.21
2023-12-09T04:07:18.695Z,-0.19
2023-12-09T04:07:41.479Z,-0.17
2023-12-09T04:08:03.878Z,-0.15
2023-12-09T04:08:26.161Z,-0.14
2023-12-09T04:08:48.462Z,-0.12
2023-12-09T04:09:11.698Z,-0.11
2023-12-09T04:09:34.154Z,-0.09
2023-12-09T04:09:56.925Z,-0.08
2023-12-09T04:10:19.257Z,-0.09
2023-12-09T04:10:41.795Z,-0.08
2023-12-09T04:11:06.356Z,-0.08
2023-12-09T04:11:28.875Z,-0.08
2023-12-09T04:11:51.184Z,-0.08
2023-12-09T04:12:13.546Z,-0.08
2023-12-09T04:12:36.195Z,-0.09
2023-12-09T04:12:58.674Z,-0.09
2023-12-09T04:13:21.059Z,-0.09
2023-12-09T04:13:43.353Z,-0.10
2023-12-09T04:14:05.942Z,-0.11
2023-12-09T04:14:28.352Z,-0.11
2023-12-09T04:14:50.730Z,-0.12
2023-12-09T04:15:13.343Z,-0.12
2023-12-09T04:15:35.970Z,-0.13
2023-12-09T04:15:58.363Z,-0.13
2023-12-09T04:16:20.737Z,-0.14
2023-12-09T04:16:43.838Z,-0.14
2023-12-09T04:17:06.469Z,-0.15
2023-12-09T04:17:28.819Z,-0.15
2023-12-09T04:17:51.378Z,-0.16
2023-12-09T04:18:14.155Z,-0.17
2023-12-09T04:18:38.368Z,-0.17
2023-12-09T04:19:01.042Z,-0.16
2023-12-09T04:19:24.533Z,-0.16
2023-12-09T04:19:47.126Z,-0.14
2023-12-09T04:20:10.768Z,-0.13
2023-12-09T04:20:33.466Z,-0.12
2023-12-09T04:20:55.826Z,-0.11
2023-12-09T04:21:19.420Z,-0.10
2023-12-09T04:21:41.982Z,-0.08
2023-12-09T04:22:04.573Z,-0.07
2023-12-09T04:22:27.138Z,-0.06
2023-12-09T04:22:49.678Z,-0.05
2023-12-09T04:23:12.103Z,-0.05
2023-12-09T04:23:34.452Z,-0.05
2023-12-09T04:23:56.801Z,-0.06
2023-12-09T04:24:19.173Z,-0.07
2023-12-09T04:24:41.586Z,-0.07
2023-12-09T04:25:05.983Z,-0.09
2023-12-09T04:25:28.295Z,-0.09
2023-12-09T04:25:50.631Z,-0.10
2023-12-09T04:26:13.012Z,-0.12
2023-12-09T04:26:35.653Z,-0.12
2023-12-09T04:26:58.107Z,-0.13
2023-12-09T04:27:21.274Z,-0.14
2023-12-09T04:27:43.918Z,-0.15
2023-12-09T04:28:06.586Z,-0.17
2023-12-09T04:28:28.899Z,-0.18
2023-12-09T04:28:51.678Z,-0.18
2023-12-09T04:29:14.137Z,-0.19
2023-12-09T04:29:37.032Z,-0.20
2023-12-09T04:29:59.986Z,-0.21
2023-12-09T04:30:25.307Z,-0.21
2023-12-09T04:30:47.797Z,-0.21
2023-12-09T04:31:10.127Z,-0.21
2023-12-09T04:31:32.434Z,-0.20
2023-12-09T04:31:54.724Z,-0.19
2023-12-09T04:32:17.020Z,-0.17
2023-12-09T04:32:39.452Z,-0.17
2023-12-09T04:33:01.866Z,-0.16
2023-12-09T04:33:24.801Z,-0.14
2023-12-09T04:33:47.427Z,-0.13
2023-12-09T04:34:10.019Z,-0.12
2023-12-09T04:34:32.383Z,-0.11
2023-12-09T04:34:54.903Z,-0.11
2023-12-09T04:35:17.335Z,-0.11
2023-12-09T04:35:39.663Z,-0.11
2023-12-09T04:36:04.333Z,-0.11
2023-12-09T04:36:26.948Z,-0.11
2023-12-09T04:36:49.462Z,-0.13
2023-12-09T04:37:11.798Z,-0.13
2023-12-09T04:37:34.226Z,-0.14
2023-12-09T04:37:56.879Z,-0.15
2023-12-09T04:38:19.246Z,-0.15
2023-12-09T04:38:42.413Z,-0.17
2023-12-09T04:39:04.756Z,-0.17
2023-12-09T04:39:27.140Z,-0.18
2023-12-09T04:39:49.712Z,-0.19
2023-12-09T04:40:13.925Z,-0.20
2023-12-09T04:40:37.520Z,-0.20
2023-12-09T04:40:59.820Z,-0.21
2023-12-09T04:41:22.658Z,-0.21
2023-12-09T04:41:45.133Z,-0.22
2023-12-09T04:42:07.552Z,-0.22
2023-12-09T04:42:30.360Z,-0.21
2023-12-09T04:42:53.043Z,-0.20
2023-12-09T04:43:15.440Z,-0.20
2023-12-09T04:43:37.740Z,-0.18
2023-12-09T04:44:00.246Z,-0.17
2023-12-09T04:44:24.439Z,-0.15
2023-12-09T04:44:46.833Z,-0.14
2023-12-09T04:45:09.605Z,-0.13
2023-12-09T04:45:32.038Z,-0.11
2023-12-09T04:45:54.604Z,-0.10
2023-12-09T04:46:16.913Z,-0.09
2023-12-09T04:46:39.373Z,-0.09
2023-12-09T04:47:03.278Z,-0.09
2023-12-09T04:47:27.225Z,-0.09
2023-12-09T04:47:50.924Z,-0.09
2023-12-09T04:48:13.427Z,-0.11
2023-12-09T04:48:35.951Z,-0.11
2023-12-09T04:48:58.738Z,-0.11
2023-12-09T04:49:21.336Z,-0.12
2023-12-09T04:49:44.292Z,-0.13
2023-12-09T04:50:09.949Z,-0.13
2023-12-09T04:50:32.315Z,-0.15
2023-12-09T04:50:54.826Z,-0.15
2023-12-09T04:51:17.516Z,-0.15
2023-12-09T04:51:39.875Z,-0.16
2023-12-09T04:52:02.285Z,-0.17
2023-12-09T04:52:24.851Z,-0.17
2023-12-09T04:52:47.893Z,-0.17
2023-12-09T04:53:10.918Z,-0.18
2023-12-09T04:53:33.990Z,-0.17
2023-12-09T04:53:56.470Z,-0.17
2023-12-09T04:54:18.901Z,-0.16
2023-12-09T04:54:41.494Z,-0.15
2023-12-09T04:55:04.919Z,-0.14
2023-12-09T04:55:27.739Z,-0.12
2023-12-09T04:55:50.123Z,-0.11
2023-12-09T04:56:12.525Z,-0.09
2023-12-09T04:56:35.020Z,-0.08
2023-12-09T04:56:57.900Z,-0.06
2023-12-09T04:57:20.267Z,-0.05
2023-12-09T04:57:42.690Z,-0.05
2023-12-09T04:58:05.332Z,-0.04
2023-12-09T04:58:27.630Z,-0.05
2023-12-09T04:58:50.124Z,-0.04